Time;durP1;ratioP1;P1;durP2;ratioP2;P2;SDS_P1;SDS_P2;PMS_P1;PMS_P2;Temp;Humidity;BMP_temperature;BMP_pressure;BME280_temperature;BME280_humidity;BME280_pressure;Samples;Min_cycle;Max_cycle;Signal;HPM_P1;HPM_P2
2021/12/10 00:01:00;;;;;;;5.97;1.90;;;3.50;99.90;;;;;;5057392;28;20059;-66
2021/12/10 00:03:34;;;;;;;8.57;2.10;;;3.50;99.90;;;;;;5057038;28;20025;-66
2021/12/10 00:06:28;;;;;;;9.35;2.00;;;3.50;99.90;;;;;;5057053;28;20033;-66
2021/12/10 00:08:59;;;;;;;7.82;1.70;;;3.40;99.90;;;;;;5021847;28;20033;-66
2021/12/10 00:11:42;;;;;;;8.80;1.92;;;3.40;99.90;;;;;;5039174;28;20071;-66
2021/12/10 00:14:09;;;;;;;8.80;1.95;;;3.40;99.90;;;;;;5057217;28;20027;-66
2021/12/10 00:16:37;;;;;;;3.35;1.40;;;3.40;99.90;;;;;;5038838;28;20025;-66
2021/12/10 00:19:23;;;;;;;6.20;1.90;;;3.30;99.90;;;;;;5057322;28;20068;-66
2021/12/10 00:21:50;;;;;;;7.32;1.83;;;3.40;99.90;;;;;;5056812;28;20112;-67
2021/12/10 00:24:17;;;;;;;4.90;1.75;;;3.40;99.90;;;;;;5056958;28;20421;-66
2021/12/10 00:26:45;;;;;;;8.15;1.55;;;3.30;99.90;;;;;;5057753;28;20028;-67
2021/12/10 00:29:13;;;;;;;7.88;1.70;;;3.40;99.90;;;;;;5056922;28;20029;-66
2021/12/10 00:31:56;;;;;;;10.45;2.30;;;3.30;99.90;;;;;;5056585;28;20057;-66
2021/12/10 00:34:44;;;;;;;8.15;3.72;;;3.30;99.90;;;;;;5056484;28;20108;-66
2021/12/10 00:37:14;;;;;;;6.43;1.70;;;3.30;99.90;;;;;;5038590;28;20101;-65
2021/12/10 00:39:46;;;;;;;6.70;1.73;;;3.30;99.90;;;;;;5057301;28;20120;-64
2021/12/10 00:42:18;;;;;;;7.65;2.03;;;3.40;99.90;;;;;;5057565;28;20092;-65
2021/12/10 00:44:44;;;;;;;7.43;2.00;;;3.50;99.90;;;;;;5057903;28;20508;-66
2021/12/10 00:47:10;;;;;;;9.63;1.90;;;3.80;99.90;;;;;;5057612;28;20021;-65
2021/12/10 00:49:36;;;;;;;5.93;1.77;;;3.60;99.90;;;;;;5056747;28;20429;-66
2021/12/10 00:52:04;;;;;;;10.30;2.00;;;3.50;99.90;;;;;;5056716;28;20409;-66
2021/12/10 00:54:30;;;;;;;8.25;1.77;;;3.40;99.90;;;;;;5056903;28;20028;-67
2021/12/10 00:56:56;;;;;;;8.25;1.88;;;3.30;99.90;;;;;;5057164;28;20074;-67
2021/12/10 00:59:21;;;;;;;9.87;1.77;;;3.20;99.90;;;;;;5057641;28;20049;-65
2021/12/10 01:01:50;;;;;;;4.37;1.40;;;3.20;99.90;;;;;;5056085;28;20478;-65
2021/12/10 01:04:25;;;;;;;4.70;1.70;;;3.30;99.90;;;;;;5055967;28;20289;-64
2021/12/10 01:06:52;;;;;;;8.65;1.77;;;3.30;99.90;;;;;;5038644;28;20021;-66
2021/12/10 01:09:24;;;;;;;6.13;1.52;;;3.30;99.90;;;;;;5056051;28;20049;-65
2021/12/10 01:11:59;;;;;;;5.80;1.58;;;3.30;99.90;;;;;;5056277;28;20103;-65
2021/12/10 01:14:41;;;;;;;8.00;2.42;;;3.20;99.90;;;;;;5056292;28;20025;-65
2021/12/10 01:25:38;;;;;;;10.50;1.85;;;3.10;99.90;;;;;;5056412;28;20107;-65
2021/12/10 01:28:07;;;;;;;5.63;1.75;;;3.10;99.90;;;;;;5037875;28;20112;-65
2021/12/10 01:30:36;;;;;;;6.38;1.90;;;3.00;99.90;;;;;;5055779;28;20025;-66
2021/12/10 01:33:06;;;;;;;6.85;2.45;;;3.00;99.90;;;;;;5038306;28;20433;-66
2021/12/10 01:35:37;;;;;;;7.35;1.95;;;2.90;99.90;;;;;;5039289;28;20350;-66
2021/12/10 01:38:05;;;;;;;6.60;1.92;;;2.90;99.90;;;;;;5055695;28;20021;-66
2021/12/10 01:40:32;;;;;;;9.15;3.25;;;2.90;99.90;;;;;;5037460;28;20049;-65
2021/12/10 01:43:06;;;;;;;12.25;2.33;;;2.80;99.90;;;;;;5055986;28;20436;-65
2021/12/10 01:45:45;;;;;;;10.35;3.55;;;2.90;99.90;;;;;;5055579;28;20103;-65
2021/12/10 01:48:15;;;;;;;10.88;2.58;;;2.80;99.90;;;;;;5056658;28;20024;-65
2021/12/10 01:50:41;;;;;;;6.93;2.53;;;2.80;99.90;;;;;;5057294;28;20017;-65
2021/12/10 01:53:11;;;;;;;4.60;2.10;;;2.80;99.90;;;;;;5055692;28;20025;-65
2021/12/10 01:55:40;;;;;;;10.05;1.90;;;2.80;99.90;;;;;;5056208;28;20333;-65
2021/12/10 01:58:09;;;;;;;5.45;2.47;;;2.80;99.90;;;;;;5055877;28;20393;-66
2021/12/10 02:00:39;;;;;;;8.35;2.60;;;2.70;99.90;;;;;;5037444;28;20025;-65
2021/12/10 02:03:05;;;;;;;5.70;2.65;;;2.70;99.90;;;;;;5055311;28;20017;-65
2021/12/10 02:05:32;;;;;;;7.30;2.08;;;2.60;99.90;;;;;;5054970;28;20036;-65
2021/12/10 02:07:58;;;;;;;8.88;2.47;;;2.70;99.90;;;;;;5054666;28;20055;-65
2021/12/10 02:10:26;;;;;;;9.05;2.58;;;2.70;99.90;;;;;;5055252;28;20393;-65
2021/12/10 02:12:53;;;;;;;10.60;3.75;;;2.80;99.90;;;;;;5037544;28;20112;-65
2021/12/10 02:15:21;;;;;;;8.48;2.85;;;2.80;99.90;;;;;;5038028;28;20028;-65
2021/12/10 02:17:50;;;;;;;7.53;2.70;;;2.70;99.90;;;;;;5056225;28;20047;-65
2021/12/10 02:20:32;;;;;;;5.03;2.03;;;2.70;99.90;;;;;;5054943;28;20394;-65
2021/12/10 02:22:58;;;;;;;5.60;2.42;;;2.70;99.90;;;;;;5037672;28;20120;-66
2021/12/10 02:25:28;;;;;;;4.57;1.90;;;2.60;99.90;;;;;;5055798;28;20035;-66
2021/12/10 02:27:54;;;;;;;6.78;2.40;;;2.60;99.90;;;;;;5038194;28;20036;-66
2021/12/10 02:30:22;;;;;;;;;;;2.50;99.90;;;;;;5056527;28;20055;-66
2021/12/10 02:32:48;;;;;;;7.90;2.05;;;2.50;99.90;;;;;;5037219;28;19909;-66
2021/12/10 02:35:15;;;;;;;5.07;1.90;;;2.50;99.90;;;;;;5037927;28;20036;-65
2021/12/10 02:37:43;;;;;;;8.65;2.30;;;2.50;99.90;;;;;;5055691;28;20025;-65
2021/12/10 02:40:13;;;;;;;7.32;2.40;;;2.50;99.90;;;;;;5055665;28;20024;-65
2021/12/10 02:42:40;;;;;;;10.77;2.35;;;2.40;99.90;;;;;;5055735;28;20484;-66
2021/12/10 02:45:09;;;;;;;8.23;2.28;;;2.40;99.90;;;;;;5055426;28;20092;-66
2021/12/10 02:47:35;;;;;;;12.18;2.85;;;2.40;99.90;;;;;;5054023;28;20048;-66
2021/12/10 02:50:01;;;;;;;7.57;3.10;;;2.40;99.90;;;;;;5054177;28;20462;-65
2021/12/10 02:52:28;;;;;;;7.47;2.03;;;2.40;99.90;;;;;;5053927;28;20021;-65
2021/12/10 02:54:53;;;;;;;;;;;2.40;99.90;;;;;;5055033;28;20016;-66
2021/12/10 02:57:20;;;;;;;6.10;2.78;;;2.40;99.90;;;;;;5036525;28;19940;-65
2021/12/10 02:59:47;;;;;;;5.53;2.00;;;2.30;99.90;;;;;;5054128;28;20025;-65
2021/12/10 03:02:16;;;;;;;7.72;2.30;;;2.20;99.90;;;;;;5053736;28;20028;-65
2021/12/10 03:04:44;;;;;;;7.50;2.13;;;2.20;99.90;;;;;;5035838;28;20501;-65
2021/12/10 03:07:14;;;;;;;7.75;2.30;;;2.20;99.90;;;;;;5036233;28;20043;-65
2021/12/10 03:09:43;;;;;;;7.45;2.15;;;2.10;99.90;;;;;;5053901;28;20021;-65
2021/12/10 03:12:09;;;;;;;5.00;2.30;;;2.10;99.90;;;;;;5036105;28;20064;-65
2021/12/10 03:14:36;;;;;;;;;;;2.10;99.90;;;;;;5054438;28;20021;-65
2021/12/10 03:17:10;;;;;;;8.73;2.17;;;2.00;99.90;;;;;;5035612;28;20257;-65
2021/12/10 03:19:36;;;;;;;3.88;1.90;;;2.00;99.90;;;;;;5052958;28;20550;-65
2021/12/10 03:22:03;;;;;;;4.75;2.05;;;2.00;99.90;;;;;;5053468;28;20041;-65
2021/12/10 03:24:29;;;;;;;4.47;1.98;;;2.00;99.90;;;;;;5053471;28;20386;-65
2021/12/10 03:26:57;;;;;;;4.47;1.75;;;2.00;99.90;;;;;;5053461;28;20036;-64
2021/12/10 03:29:25;;;;;;;8.32;1.70;;;2.10;99.90;;;;;;5053197;28;20032;-65
2021/12/10 03:31:53;;;;;;;4.38;1.30;;;2.10;99.90;;;;;;5053352;28;20023;-65
2021/12/10 03:34:19;;;;;;;7.22;1.55;;;2.00;99.90;;;;;;5053102;28;20116;-65
2021/12/10 03:36:46;;;;;;;9.82;2.10;;;2.10;99.90;;;;;;5035290;28;20021;-65
2021/12/10 03:39:17;;;;;;;5.05;1.45;;;2.30;99.90;;;;;;5053182;28;20052;-65
2021/12/10 03:41:43;;;;;;;4.82;1.50;;;2.40;99.90;;;;;;5053287;28;20029;-64
2021/12/10 03:44:09;;;;;;;;;;;2.50;99.90;;;;;;5053755;28;20028;-65
2021/12/10 03:46:36;;;;;;;5.57;1.90;;;2.50;99.90;;;;;;5053265;28;20346;-65
2021/12/10 03:49:04;;;;;;;4.40;1.35;;;2.50;99.90;;;;;;5052965;28;20029;-65
2021/12/10 03:51:32;;;;;;;5.10;1.40;;;2.60;99.90;;;;;;5034942;28;20021;-65
2021/12/10 03:53:58;;;;;;;4.03;1.48;;;2.50;99.90;;;;;;5052855;28;20033;-65
2021/12/10 03:56:27;;;;;;;5.07;1.25;;;2.40;99.90;;;;;;5052918;28;20024;-66
2021/12/10 03:58:55;;;;;;;2.58;1.10;;;2.30;99.90;;;;;;5053350;28;20072;-65
2021/12/10 04:01:26;;;;;;;4.85;1.20;;;2.40;99.90;;;;;;5034940;28;20199;-65
2021/12/10 04:03:53;;;;;;;7.13;1.42;;;2.40;99.90;;;;;;5053317;28;20451;-66
2021/12/10 04:06:20;;;;;;;8.52;1.70;;;2.30;99.90;;;;;;5053020;28;20028;-66
2021/12/10 04:08:47;;;;;;;4.75;1.88;;;2.30;99.90;;;;;;5035322;28;20036;-66
2021/12/10 04:11:15;;;;;;;9.70;1.38;;;2.20;99.90;;;;;;5053318;28;20470;-65
2021/12/10 04:13:43;;;;;;;3.40;0.98;;;2.20;99.90;;;;;;5053581;28;20107;-65
2021/12/10 04:16:09;;;;;;;8.48;1.50;;;2.20;99.90;;;;;;5053455;28;20474;-65
2021/12/10 04:18:36;;;;;;;3.30;1.20;;;2.20;99.90;;;;;;5053779;28;20143;-66
2021/12/10 04:21:07;;;;;;;4.47;1.90;;;2.30;99.90;;;;;;5035932;28;20621;-66
2021/12/10 04:23:34;;;;;;;5.25;1.40;;;2.30;99.90;;;;;;5054633;28;20116;-66
2021/12/10 04:26:00;;;;;;;5.65;1.23;;;2.30;99.90;;;;;;5053987;28;20347;-66
2021/12/10 04:28:26;;;;;;;2.50;1.27;;;2.40;99.90;;;;;;5054677;28;20035;-66
2021/12/10 04:30:52;;;;;;;4.00;1.23;;;2.40;99.90;;;;;;5056138;28;20067;-66
2021/12/10 04:33:23;;;;;;;6.22;1.30;;;2.30;99.90;;;;;;5059097;28;20113;-66
2021/12/10 04:35:51;;;;;;;5.60;1.10;;;2.30;99.90;;;;;;5059823;28;20041;-65
2021/12/10 04:38:18;;;;;;;7.68;1.40;;;2.40;99.90;;;;;;5060965;28;20017;-65
2021/12/10 04:40:47;;;;;;;3.55;1.23;;;2.40;99.90;;;;;;5063440;28;20096;-68
2021/12/10 04:43:15;;;;;;;4.95;1.88;;;2.30;99.90;;;;;;5045922;28;20021;-67
2021/12/10 04:45:41;;;;;;;6.05;1.20;;;2.30;99.90;;;;;;5062970;28;20032;-66
2021/12/10 04:48:07;;;;;;;11.40;1.98;;;2.30;99.90;;;;;;5063395;28;20025;-66
2021/12/10 04:50:34;;;;;;;4.50;1.00;;;2.30;99.90;;;;;;5062130;28;20044;-67
2021/12/10 04:53:00;;;;;;;3.38;1.40;;;2.40;99.90;;;;;;5063171;28;20450;-67
2021/12/10 04:55:27;;;;;;;3.53;0.98;;;2.40;99.90;;;;;;5061383;28;20478;-68
2021/12/10 04:57:52;;;;;;;3.88;1.20;;;2.40;99.90;;;;;;5059775;28;20067;-65
2021/12/10 05:00:26;;;;;;;3.95;1.15;;;2.30;99.90;;;;;;5056987;28;20033;-68
2021/12/10 05:02:53;;;;;;;3.97;1.25;;;2.50;99.90;;;;;;5056932;28;20100;-64
2021/12/10 05:05:19;;;;;;;6.65;1.70;;;2.50;99.90;;;;;;5057394;28;20025;-64
2021/12/10 05:07:44;;;;;;;3.63;1.20;;;2.70;99.90;;;;;;5057788;28;20047;-63
2021/12/10 05:10:12;;;;;;;2.30;1.07;;;2.60;99.90;;;;;;5056891;28;20256;-63
2021/12/10 05:12:39;;;;;;;4.97;1.45;;;2.70;99.90;;;;;;5056656;28;20048;-64
2021/12/10 05:15:08;;;;;;;4.05;1.23;;;2.60;99.90;;;;;;5057423;28;20021;-65
2021/12/10 05:17:40;;;;;;;9.20;1.30;;;2.50;99.90;;;;;;5057051;28;20025;-64
2021/12/10 05:20:12;;;;;;;6.85;1.45;;;2.40;99.90;;;;;;5056594;28;20025;-64
2021/12/10 05:22:41;;;;;;;4.18;1.25;;;2.20;99.90;;;;;;5056564;28;20037;-63
2021/12/10 05:25:07;;;;;;;9.25;1.30;;;2.20;99.90;;;;;;5038864;28;20028;-64
2021/12/10 05:27:33;;;;;;;7.32;1.20;;;2.20;99.90;;;;;;5055928;28;20067;-62
2021/12/10 05:29:59;;;;;;;7.20;1.75;;;2.10;99.90;;;;;;5054928;28;20028;-63
2021/12/10 05:32:25;;;;;;;4.05;1.27;;;2.10;99.90;;;;;;5054889;28;20040;-62
2021/12/10 05:34:51;;;;;;;5.35;1.50;;;2.00;99.90;;;;;;5054830;28;20033;-63
2021/12/10 05:37:18;;;;;;;4.15;1.27;;;2.00;99.90;;;;;;5054883;28;20049;-62
2021/12/10 05:39:44;;;;;;;5.45;2.17;;;2.10;99.90;;;;;;5054942;28;20048;-65
2021/12/10 05:42:09;;;;;;;5.07;1.90;;;2.10;99.90;;;;;;5054454;28;20049;-65
2021/12/10 05:44:38;;;;;;;6.20;2.03;;;2.10;99.90;;;;;;5036874;28;20041;-66
2021/12/10 05:47:05;;;;;;;4.18;1.80;;;2.00;99.90;;;;;;5055536;28;20408;-65
2021/12/10 05:49:31;;;;;;;8.93;2.10;;;2.00;99.90;;;;;;5055720;28;20021;-65
2021/12/10 05:51:57;;;;;;;9.13;2.80;;;2.10;99.90;;;;;;5037077;28;20025;-64
2021/12/10 05:54:23;;;;;;;5.90;2.50;;;2.20;99.90;;;;;;5054582;28;20327;-65
2021/12/10 05:56:49;;;;;;;3.47;1.40;;;2.10;99.90;;;;;;5036904;28;20025;-65
2021/12/10 05:59:16;;;;;;;5.55;1.52;;;2.10;99.90;;;;;;5054558;28;20028;-65
2021/12/10 06:01:42;;;;;;;6.38;1.33;;;2.00;99.90;;;;;;5054460;28;20057;-65
2021/12/10 06:04:08;;;;;;;4.15;1.73;;;2.00;99.90;;;;;;5054566;28;20048;-67
2021/12/10 06:06:35;;;;;;;5.53;1.85;;;2.00;99.90;;;;;;5054421;28;20072;-64
2021/12/10 06:09:05;;;;;;;7.15;2.72;;;2.00;99.90;;;;;;5054907;28;20037;-65
2021/12/10 06:11:31;;;;;;;5.43;1.80;;;2.00;99.90;;;;;;5054726;28;20017;-64
2021/12/10 06:13:57;;;;;;;4.40;2.20;;;2.00;99.90;;;;;;5054081;28;20029;-64
2021/12/10 06:16:23;;;;;;;4.95;2.00;;;2.00;99.90;;;;;;5054152;28;20054;-65
2021/12/10 06:18:49;;;;;;;7.28;2.33;;;2.00;99.90;;;;;;5054514;28;20386;-65
2021/12/10 06:21:16;;;;;;;5.30;1.90;;;2.10;99.90;;;;;;5054168;28;20374;-67
2021/12/10 06:23:42;;;;;;;7.65;2.20;;;2.10;99.90;;;;;;5054460;28;20029;-63
2021/12/10 06:26:08;;;;;;;4.87;2.33;;;2.00;99.90;;;;;;5054191;28;20025;-68
2021/12/10 06:28:35;;;;;;;7.68;2.40;;;2.00;99.90;;;;;;5036283;28;20116;-67
2021/12/10 06:31:01;;;;;;;5.75;2.90;;;2.10;99.90;;;;;;5053793;28;20033;-66
2021/12/10 06:33:29;;;;;;;5.55;2.72;;;2.20;99.90;;;;;;5053834;28;20058;-67
2021/12/10 06:35:58;;;;;;;8.43;3.15;;;2.20;99.90;;;;;;5054284;28;20418;-63
2021/12/10 06:38:24;;;;;;;7.10;3.22;;;2.20;99.90;;;;;;5052486;28;20048;-65
2021/12/10 06:40:52;;;;;;;8.20;2.83;;;2.30;99.90;;;;;;5051968;28;20021;-66
2021/12/10 06:43:19;;;;;;;7.00;3.13;;;2.40;99.90;;;;;;5051858;28;20512;-64
2021/12/10 06:45:46;;;;;;;9.20;3.70;;;2.30;99.90;;;;;;5052295;28;20061;-66
2021/12/10 06:48:14;;;;;;;6.25;3.60;;;2.30;99.90;;;;;;5051870;28;20040;-66
2021/12/10 06:50:49;;;;;;;5.72;3.40;;;2.20;99.90;;;;;;5053354;28;20111;-66
2021/12/10 06:53:17;;;;;;;10.60;4.55;;;2.20;99.90;;;;;;5056553;28;20112;-67
2021/12/10 06:55:42;;;;;;;9.05;4.32;;;2.20;99.90;;;;;;5058247;28;20580;-66
2021/12/10 06:58:08;;;;;;;8.47;4.53;;;2.10;99.90;;;;;;5039972;28;20108;-67
2021/12/10 07:00:44;;;;;;;8.65;4.35;;;2.10;99.90;;;;;;5057290;28;20025;-67
2021/12/10 07:03:12;;;;;;;10.73;5.13;;;2.10;99.90;;;;;;5039319;28;20041;-66
2021/12/10 07:05:39;;;;;;;10.25;4.75;;;2.00;99.90;;;;;;5054775;28;20418;-64
2021/12/10 07:08:05;;;;;;;14.82;5.65;;;2.10;99.90;;;;;;5053647;28;20020;-64
2021/12/10 07:10:31;;;;;;;9.18;4.75;;;2.20;99.90;;;;;;5053773;28;20371;-64
2021/12/10 07:12:58;;;;;;;10.32;4.43;;;2.20;99.90;;;;;;5053800;28;20027;-65
2021/12/10 07:15:23;;;;;;;10.52;4.85;;;2.20;99.90;;;;;;5053546;28;20119;-65
2021/12/10 07:17:50;;;;;;;7.37;4.33;;;2.20;99.90;;;;;;5053246;28;20021;-65
2021/12/10 07:20:19;;;;;;;9.98;4.60;;;2.10;99.90;;;;;;5053261;28;20027;-65
2021/12/10 07:22:44;;;;;;;9.38;4.70;;;2.00;99.90;;;;;;5052951;28;20037;-65
2021/12/10 07:25:11;;;;;;;7.47;4.37;;;2.10;99.90;;;;;;5053433;28;20083;-65
2021/12/10 07:27:37;;;;;;;7.53;4.07;;;2.10;99.90;;;;;;5053187;28;20104;-64
2021/12/10 07:30:05;;;;;;;10.15;3.97;;;2.10;99.90;;;;;;5053161;28;20057;-65
2021/12/10 07:32:30;;;;;;;11.82;4.50;;;2.10;99.90;;;;;;5052888;28;20397;-66
2021/12/10 07:34:56;;;;;;;7.27;4.10;;;2.10;99.90;;;;;;5053071;28;20025;-65
2021/12/10 07:37:22;;;;;;;11.33;4.90;;;2.10;99.90;;;;;;5052864;28;20555;-65
2021/12/10 07:39:48;;;;;;;10.03;4.50;;;2.20;99.90;;;;;;5052911;28;20414;-65
2021/12/10 07:42:14;;;;;;;7.15;3.58;;;2.20;99.90;;;;;;5052893;28;20025;-66
2021/12/10 07:44:40;;;;;;;10.52;4.38;;;2.30;99.90;;;;;;5052889;28;20104;-65
2021/12/10 07:47:09;;;;;;;9.37;4.40;;;2.50;99.90;;;;;;5052725;28;20589;-65
2021/12/10 07:49:37;;;;;;;7.85;3.70;;;2.40;99.90;;;;;;5052823;28;20032;-65
2021/12/10 07:52:07;;;;;;;31.15;6.43;;;2.40;99.90;;;;;;5053187;28;20076;-65
2021/12/10 07:54:33;;;;;;;12.85;4.35;;;2.50;99.90;;;;;;5053654;28;20514;-65
2021/12/10 07:56:58;;;;;;;10.37;5.73;;;2.60;99.90;;;;;;5053755;28;20055;-65
2021/12/10 07:59:24;;;;;;;7.10;4.37;;;2.90;99.90;;;;;;5034917;28;20017;-65
2021/12/10 08:01:50;;;;;;;10.07;5.00;;;3.00;99.90;;;;;;5053009;28;20052;-65
2021/12/10 08:04:16;;;;;;;8.10;4.20;;;3.00;99.90;;;;;;5053516;28;20036;-65
2021/12/10 08:06:41;;;;;;;8.90;3.77;;;3.20;99.90;;;;;;5038875;28;20029;-65
2021/12/10 08:09:09;;;;;;;8.50;4.40;;;3.20;99.90;;;;;;5038471;28;20021;-65
2021/12/10 08:11:36;;;;;;;6.22;3.28;;;3.30;99.90;;;;;;5056385;28;20025;-65
2021/12/10 08:14:01;;;;;;;7.65;3.55;;;3.30;99.90;;;;;;5056096;28;20075;-64
2021/12/10 08:16:28;;;;;;;7.50;4.33;;;3.40;99.90;;;;;;5056424;28;20400;-65
2021/12/10 08:18:55;;;;;;;11.25;6.03;;;3.50;99.90;;;;;;5056567;28;20259;-65
2021/12/10 08:21:22;;;;;;;6.20;2.80;;;3.50;99.90;;;;;;5056470;28;20021;-65
2021/12/10 08:23:50;;;;;;;7.50;4.28;;;3.60;99.90;;;;;;5056494;28;20182;-65
2021/12/10 08:26:16;;;;;;;6.65;2.58;;;3.70;99.90;;;;;;5056524;28;20028;-66
2021/12/10 08:28:42;;;;;;;7.18;3.90;;;3.80;99.90;;;;;;5056781;28;20544;-66
2021/12/10 08:31:08;;;;;;;5.63;3.28;;;3.90;99.90;;;;;;5056664;28;20037;-65
2021/12/10 08:33:34;;;;;;;7.00;3.17;;;3.90;99.90;;;;;;5056643;28;20025;-64
2021/12/10 08:36:06;;;;;;;7.43;3.10;;;3.90;99.90;;;;;;5056632;28;20029;-66
2021/12/10 08:38:32;;;;;;;6.07;3.38;;;4.10;99.90;;;;;;5056629;28;20120;-65
2021/12/10 08:41:07;;;;;;;9.27;4.60;;;4.40;99.90;;;;;;5056354;28;20055;-64
2021/12/10 08:43:34;;;;;;;10.55;5.47;;;4.40;99.90;;;;;;5038180;28;20029;-65
2021/12/10 08:46:00;;;;;;;;;;;4.10;99.90;;;;;;5056556;28;20031;-64
2021/12/10 08:48:28;;;;;;;8.93;3.80;;;4.00;99.90;;;;;;5056041;28;19904;-64
2021/12/10 08:50:55;;;;;;;9.40;4.25;;;4.00;99.90;;;;;;5037876;28;20029;-67
2021/12/10 08:53:21;;;;;;;13.35;4.60;;;4.00;99.90;;;;;;5055737;28;20028;-65
2021/12/10 08:55:49;;;;;;;7.60;3.80;;;3.90;99.90;;;;;;5037765;28;20521;-65
2021/12/10 08:58:16;;;;;;;7.25;3.25;;;4.10;99.90;;;;;;5055896;28;20385;-64
2021/12/10 09:00:46;;;;;;;10.57;3.95;;;3.90;99.90;;;;;;5055397;28;20025;-64
2021/12/10 09:03:12;;;;;;;9.20;3.63;;;3.80;99.90;;;;;;5055502;28;20025;-64
2021/12/10 09:05:38;;;;;;;6.50;3.15;;;3.70;99.90;;;;;;5055519;28;20021;-64
2021/12/10 09:08:04;;;;;;;5.73;2.90;;;3.70;99.90;;;;;;5055365;28;20112;-64
2021/12/10 09:10:38;;;;;;;7.50;2.60;;;3.70;99.90;;;;;;5055407;28;20068;-65
2021/12/10 09:13:12;;;;;;;6.85;2.55;;;3.70;99.90;;;;;;5055638;28;20021;-64
2021/12/10 09:15:38;;;;;;;7.05;2.03;;;3.70;99.90;;;;;;5055482;28;20432;-65
2021/12/10 09:18:06;;;;;;;4.25;1.85;;;3.60;99.90;;;;;;5055036;28;20103;-64
2021/12/10 09:20:38;;;;;;;4.65;1.70;;;3.70;99.90;;;;;;5055209;28;20104;-66
2021/12/10 09:23:04;;;;;;;8.68;2.05;;;3.50;99.90;;;;;;5055903;28;20072;-64
2021/12/10 09:25:30;;;;;;;4.45;1.75;;;3.40;99.90;;;;;;5055452;28;20112;-65
2021/12/10 09:27:56;;;;;;;10.57;2.60;;;3.40;99.90;;;;;;5055436;28;20064;-65
2021/12/10 09:30:23;;;;;;;7.07;2.00;;;3.40;99.90;;;;;;5055221;28;20048;-65
2021/12/10 09:32:50;;;;;;;7.10;2.20;;;3.40;99.90;;;;;;5055297;28;20425;-64
2021/12/10 09:35:18;;;;;;;6.75;2.10;;;3.50;99.90;;;;;;5055087;28;20022;-65
2021/12/10 09:37:46;;;;;;;7.68;2.25;;;3.50;99.90;;;;;;5037572;28;20028;-64
2021/12/10 09:40:17;;;;;;;9.77;2.72;;;3.40;99.90;;;;;;5055162;28;20024;-63
2021/12/10 09:42:44;;;;;;;7.72;2.38;;;3.40;99.90;;;;;;5054897;28;20029;-63
2021/12/10 09:45:14;;;;;;;12.43;2.53;;;3.40;99.90;;;;;;5054729;28;20047;-64
2021/12/10 09:47:40;;;;;;;4.72;2.33;;;3.40;99.90;;;;;;5054915;28;20482;-66
2021/12/10 09:50:07;;;;;;;6.43;2.30;;;3.40;99.90;;;;;;5054511;28;20079;-65
2021/12/10 09:52:33;;;;;;;5.88;2.30;;;3.40;99.90;;;;;;5054680;28;20021;-65
2021/12/10 09:54:59;;;;;;;14.07;4.68;;;3.50;99.90;;;;;;5054704;28;20099;-65
2021/12/10 09:57:29;;;;;;;8.10;3.30;;;3.50;99.90;;;;;;5054841;28;20056;-64
2021/12/10 09:59:57;;;;;;;5.72;2.60;;;3.60;99.90;;;;;;5054736;28;20029;-64
2021/12/10 10:02:25;;;;;;;7.40;2.30;;;3.70;99.90;;;;;;5054694;28;20390;-65
2021/12/10 10:04:52;;;;;;;8.25;2.67;;;3.60;99.90;;;;;;5054303;28;20017;-65
2021/12/10 10:07:25;;;;;;;9.73;2.67;;;3.60;99.90;;;;;;5054385;28;20485;-64
2021/12/10 10:09:54;;;;;;;6.30;2.50;;;3.60;99.90;;;;;;5054612;28;20035;-65
2021/12/10 10:12:29;;;;;;;8.23;2.88;;;3.60;99.90;;;;;;5054187;28;20021;-65
2021/12/10 10:14:55;;;;;;;10.50;2.90;;;3.70;99.90;;;;;;5036527;28;20029;-64
2021/12/10 10:17:22;;;;;;;12.30;3.70;;;3.70;99.90;;;;;;5036377;28;20044;-64
2021/12/10 10:19:49;;;;;;;8.10;2.60;;;3.80;99.90;;;;;;5053844;28;20068;-64
2021/12/10 10:22:20;;;;;;;7.13;2.45;;;3.90;99.90;;;;;;5035764;28;20028;-65
2021/12/10 10:24:46;;;;;;;3.50;2.20;;;4.00;99.90;;;;;;5054387;28;20033;-63
2021/12/10 10:27:22;;;;;;;7.70;2.87;;;4.40;99.90;;;;;;5035990;28;20032;-64
2021/12/10 10:29:55;;;;;;;5.37;3.07;;;4.50;99.90;;;;;;5054209;28;20021;-64
2021/12/10 10:32:25;;;;;;;7.72;3.05;;;4.40;99.90;;;;;;5054063;28;20029;-64
2021/12/10 10:35:01;;;;;;;11.68;3.38;;;4.30;99.90;;;;;;5035736;28;20025;-64
2021/12/10 10:37:28;;;;;;;6.38;2.65;;;4.20;99.90;;;;;;5053722;28;20426;-64
2021/12/10 10:39:54;;;;;;;6.90;2.70;;;4.10;99.90;;;;;;5053624;28;20031;-64
2021/12/10 10:42:24;;;;;;;8.82;2.70;;;4.00;99.90;;;;;;5035738;28;20055;-64
2021/12/10 10:44:51;;;;;;;8.82;3.22;;;4.00;99.90;;;;;;5053808;28;20033;-64
2021/12/10 10:47:20;;;;;;;10.35;3.08;;;4.00;99.90;;;;;;5053534;28;20112;-64
2021/12/10 10:49:49;;;;;;;6.78;2.78;;;4.10;99.90;;;;;;5053986;28;20412;-65
2021/12/10 10:52:37;;;;;;;10.38;3.60;;;4.20;99.90;;;;;;5053920;28;20021;-65
2021/12/10 10:55:12;;;;;;;7.80;3.17;;;4.20;99.90;;;;;;5053211;28;20437;-65
2021/12/10 10:57:46;;;;;;;6.40;3.42;;;4.20;99.90;;;;;;5053083;28;20021;-65
2021/12/10 11:00:32;;;;;;;8.63;3.25;;;4.30;99.90;;;;;;5053386;28;20025;-65
2021/12/10 11:03:10;;;;;;;10.18;3.30;;;4.20;99.90;;;;;;5053206;28;20172;-65
2021/12/10 11:05:48;;;;;;;10.85;3.60;;;4.30;99.90;;;;;;5053464;28;20021;-64
2021/12/10 11:08:32;;;;;;;11.38;4.25;;;4.30;99.90;;;;;;5053416;28;20430;-65
2021/12/10 11:11:19;;;;;;;8.93;3.65;;;4.20;99.90;;;;;;5053651;28;20080;-64
2021/12/10 11:13:51;;;;;;;7.80;3.85;;;4.20;99.90;;;;;;5053532;28;20345;-65
2021/12/10 11:16:20;;;;;;;6.95;3.83;;;4.20;99.90;;;;;;5053158;28;20028;-66
2021/12/10 11:19:05;;;;;;;9.90;3.65;;;4.10;99.90;;;;;;5053263;28;20029;-64
2021/12/10 11:21:44;;;;;;;21.60;7.47;;;4.20;99.90;;;;;;5053061;28;20095;-65
2021/12/10 11:24:34;;;;;;;11.07;4.53;;;4.20;99.90;;;;;;5035749;28;20045;-65
2021/12/10 11:27:08;;;;;;;9.68;3.80;;;4.30;99.90;;;;;;5053617;28;20101;-68
2021/12/10 11:29:40;;;;;;;7.68;3.92;;;4.30;99.90;;;;;;5053197;28;20116;-68
2021/12/10 11:32:26;;;;;;;9.60;3.55;;;4.30;99.90;;;;;;5053185;28;20058;-69
2021/12/10 11:34:54;;;;;;;8.95;3.90;;;4.30;99.90;;;;;;5053106;28;20035;-68
2021/12/10 11:37:57;;;;;;;7.57;4.63;;;4.30;99.90;;;;;;5052992;28;20377;-68
2021/12/10 11:40:31;;;;;;;8.40;3.45;;;4.30;99.90;;;;;;5057253;28;20017;-68
2021/12/10 11:43:05;;;;;;;8.50;3.67;;;4.30;99.90;;;;;;5059635;28;20104;-68
2021/12/10 11:45:52;;;;;;;9.48;3.63;;;4.20;99.90;;;;;;5059912;28;20029;-68
2021/12/10 11:48:25;;;;;;;6.18;4.03;;;4.20;99.90;;;;;;5059744;28;20032;-68
2021/12/10 11:51:25;;;;;;;8.63;3.80;;;4.30;99.90;;;;;;5059463;28;20389;-68
2021/12/10 11:53:56;;;;;;;8.05;3.95;;;4.20;99.90;;;;;;5059445;28;20438;-67
2021/12/10 11:56:24;;;;;;;6.30;3.53;;;4.20;99.90;;;;;;5059497;28;20470;-67
2021/12/10 11:59:05;;;;;;;9.55;4.25;;;4.20;99.90;;;;;;5059385;28;20032;-67
2021/12/10 12:01:34;;;;;;;8.02;3.65;;;4.20;99.90;;;;;;5041415;28;20025;-67
2021/12/10 12:04:15;;;;;;;10.60;4.07;;;4.30;99.90;;;;;;5059775;28;20055;-67
2021/12/10 12:06:41;;;;;;;6.43;3.50;;;4.30;99.90;;;;;;5041675;28;20489;-67
2021/12/10 12:09:06;;;;;;;7.07;2.77;;;4.30;99.90;;;;;;5059688;28;20043;-68
2021/12/10 12:11:32;;;;;;;9.43;3.40;;;4.30;99.90;;;;;;5041819;28;20029;-67
2021/12/10 12:14:00;;;;;;;4.17;2.00;;;4.30;99.90;;;;;;5059470;28;20025;-68
2021/12/10 12:16:27;;;;;;;7.03;1.88;;;4.30;99.90;;;;;;5059589;28;20268;-71
2021/12/10 12:18:58;;;;;;;2.38;1.50;;;4.20;99.90;;;;;;5059689;28;20049;-67
2021/12/10 12:27:05;;;;;;;4.07;1.20;;;3.80;99.90;;;;;;5059550;28;20039;-67
2021/12/10 12:29:45;;;;;;;3.00;1.20;;;3.80;99.90;;;;;;5059413;28;20096;-66
2021/12/10 12:32:21;;;;;;;5.90;1.35;;;3.80;99.90;;;;;;5059328;28;20021;-66
2021/12/10 12:34:48;;;;;;;2.58;1.30;;;4.00;99.90;;;;;;5059747;28;20025;-66
2021/12/10 12:37:15;;;;;;;1.85;1.30;;;4.20;99.90;;;;;;5059597;28;20478;-65
2021/12/10 12:39:48;;;;;;;3.28;1.50;;;4.20;99.90;;;;;;5059424;28;20029;-65
2021/12/10 12:42:21;;;;;;;3.00;1.35;;;4.40;99.90;;;;;;5059661;28;20017;-65
2021/12/10 12:44:50;;;;;;;1.85;1.20;;;4.40;99.90;;;;;;5059034;28;20397;-64
2021/12/10 12:47:22;;;;;;;3.10;1.25;;;4.60;99.90;;;;;;5059232;28;20108;-64
2021/12/10 12:49:47;;;;;;;2.40;1.10;;;4.50;99.90;;;;;;5059753;28;20470;-64
2021/12/10 12:52:39;;;;;;;4.30;1.50;;;4.50;99.90;;;;;;5055449;28;20033;-67
2021/12/10 12:55:26;;;;;;;2.67;1.30;;;4.50;99.90;;;;;;5042606;28;20049;-67
2021/12/10 12:57:58;;;;;;;4.25;1.40;;;4.50;99.90;;;;;;5055843;28;20028;-65
2021/12/10 13:00:36;;;;;;;3.30;1.33;;;4.50;99.90;;;;;;5056120;28;20025;-65
2021/12/10 13:03:29;;;;;;;5.13;1.55;;;4.50;99.90;;;;;;5056097;28;20056;-65
2021/12/10 13:06:24;;;;;;;1.80;1.20;;;4.40;99.90;;;;;;5043276;28;20366;-65
2021/12/10 13:09:04;;;;;;;4.13;1.65;;;4.40;99.90;;;;;;5055787;28;20113;-66
2021/12/10 13:12:09;;;;;;;2.90;1.30;;;4.50;99.90;;;;;;5055968;28;20478;-65
2021/12/10 13:14:50;;;;;;;3.33;1.70;;;4.50;99.90;;;;;;5055799;28;20036;-66
2021/12/10 13:17:18;;;;;;;3.92;1.60;;;4.30;99.90;;;;;;5055684;28;20046;-65
2021/12/10 13:19:44;;;;;;;4.18;1.63;;;4.10;99.90;;;;;;5056076;28;20082;-66
2021/12/10 13:22:16;;;;;;;6.63;3.22;;;4.00;99.90;;;;;;5055494;28;20033;-66
2021/12/10 13:24:45;;;;;;;5.72;2.75;;;3.90;99.90;;;;;;5055653;28;20394;-66